sensor_id;sensor_type;location;lat;lon;timestamp;temperature;humidity
67899;DHT22;54699;51.796;10.956;2022-12-13T00:00:44;14.70;44.10
67899;DHT22;54699;51.796;10.956;2022-12-13T00:03:12;14.70;44.10
67899;DHT22;54699;51.796;10.956;2022-12-13T00:05:41;14.70;44.10
67899;DHT22;54699;51.796;10.956;2022-12-13T00:08:09;14.70;44.10
67899;DHT22;54699;51.796;10.956;2022-12-13T00:10:36;14.70;44.10
67899;DHT22;54699;51.796;10.956;2022-12-13T00:13:02;14.70;44.10
67899;DHT22;54699;51.796;10.956;2022-12-13T00:15:29;14.70;44.10
67899;DHT22;54699;51.796;10.956;2022-12-13T00:17:56;14.70;44.10
67899;DHT22;54699;51.796;10.956;2022-12-13T00:20:24;14.70;44.10
67899;DHT22;54699;51.796;10.956;2022-12-13T00:22:51;14.70;44.10
67899;DHT22;54699;51.796;10.956;2022-12-13T00:25:18;14.60;44.00
67899;DHT22;54699;51.796;10.956;2022-12-13T00:27:45;14.70;44.10
67899;DHT22;54699;51.796;10.956;2022-12-13T00:30:12;14.70;44.00
67899;DHT22;54699;51.796;10.956;2022-12-13T00:32:39;14.70;44.00
67899;DHT22;54699;51.796;10.956;2022-12-13T00:35:06;14.70;44.10
67899;DHT22;54699;51.796;10.956;2022-12-13T00:37:35;14.70;44.10
67899;DHT22;54699;51.796;10.956;2022-12-13T00:40:02;14.70;44.10
67899;DHT22;54699;51.796;10.956;2022-12-13T00:42:29;14.70;44.10
67899;DHT22;54699;51.796;10.956;2022-12-13T00:44:59;14.70;44.10
67899;DHT22;54699;51.796;10.956;2022-12-13T00:47:26;14.70;44.10
67899;DHT22;54699;51.796;10.956;2022-12-13T00:49:52;14.70;44.10
67899;DHT22;54699;51.796;10.956;2022-12-13T00:52:19;14.70;44.10
67899;DHT22;54699;51.796;10.956;2022-12-13T00:54:47;14.60;44.00
67899;DHT22;54699;51.796;10.956;2022-12-13T00:57:14;14.60;44.00
67899;DHT22;54699;51.796;10.956;2022-12-13T00:59:41;14.60;44.00
67899;DHT22;54699;51.796;10.956;2022-12-13T01:02:07;14.60;44.00
67899;DHT22;54699;51.796;10.956;2022-12-13T01:04:34;14.60;44.00
67899;DHT22;54699;51.796;10.956;2022-12-13T01:07:01;14.60;44.00
67899;DHT22;54699;51.796;10.956;2022-12-13T01:09:28;14.60;44.10
67899;DHT22;54699;51.796;10.956;2022-12-13T01:11:58;14.60;44.00
67899;DHT22;54699;51.796;10.956;2022-12-13T01:14:27;14.60;44.00
67899;DHT22;54699;51.796;10.956;2022-12-13T01:16:55;14.60;44.10
67899;DHT22;54699;51.796;10.956;2022-12-13T01:19:22;14.60;44.00
67899;DHT22;54699;51.796;10.956;2022-12-13T01:21:52;14.60;44.00
67899;DHT22;54699;51.796;10.956;2022-12-13T01:24:19;14.60;44.10
67899;DHT22;54699;51.796;10.956;2022-12-13T01:26:49;14.60;44.00
67899;DHT22;54699;51.796;10.956;2022-12-13T01:29:18;14.60;44.00
67899;DHT22;54699;51.796;10.956;2022-12-13T01:31:46;14.60;44.10
67899;DHT22;54699;51.796;10.956;2022-12-13T01:34:14;14.60;44.10
67899;DHT22;54699;51.796;10.956;2022-12-13T01:36:43;14.60;44.00
67899;DHT22;54699;51.796;10.956;2022-12-13T01:39:12;14.60;44.10
67899;DHT22;54699;51.796;10.956;2022-12-13T01:41:41;14.60;44.00
67899;DHT22;54699;51.796;10.956;2022-12-13T01:47:10;14.60;44.10
67899;DHT22;54699;51.796;10.956;2022-12-13T01:49:39;14.50;44.10
67899;DHT22;54699;51.796;10.956;2022-12-13T01:52:07;14.50;44.00
67899;DHT22;54699;51.796;10.956;2022-12-13T01:54:39;14.60;44.10
67899;DHT22;54699;51.796;10.956;2022-12-13T01:57:09;14.50;44.10
67899;DHT22;54699;51.796;10.956;2022-12-13T01:59:38;14.60;44.00
67899;DHT22;54699;51.796;10.956;2022-12-13T02:02:07;14.50;44.90
67899;DHT22;54699;51.796;10.956;2022-12-13T02:04:39;14.50;44.10
67899;DHT22;54699;51.796;10.956;2022-12-13T02:07:10;14.50;44.10
67899;DHT22;54699;51.796;10.956;2022-12-13T02:09:41;14.50;44.00
67899;DHT22;54699;51.796;10.956;2022-12-13T02:12:09;14.50;44.00
67899;DHT22;54699;51.796;10.956;2022-12-13T02:14:37;14.50;44.10
67899;DHT22;54699;51.796;10.956;2022-12-13T02:17:07;14.50;44.10
67899;DHT22;54699;51.796;10.956;2022-12-13T02:22:54;14.50;44.10
67899;DHT22;54699;51.796;10.956;2022-12-13T02:25:40;14.50;44.10
67899;DHT22;54699;51.796;10.956;2022-12-13T02:28:24;14.50;44.10
67899;DHT22;54699;51.796;10.956;2022-12-13T02:31:09;14.50;44.00
67899;DHT22;54699;51.796;10.956;2022-12-13T02:33:42;14.50;44.00
67899;DHT22;54699;51.796;10.956;2022-12-13T02:36:18;14.50;44.00
67899;DHT22;54699;51.796;10.956;2022-12-13T02:38:55;14.50;44.00
67899;DHT22;54699;51.796;10.956;2022-12-13T02:41:26;14.50;44.10
67899;DHT22;54699;51.796;10.956;2022-12-13T02:44:03;14.50;44.10
67899;DHT22;54699;51.796;10.956;2022-12-13T02:46:35;14.50;44.10
67899;DHT22;54699;51.796;10.956;2022-12-13T02:49:06;14.50;44.10
67899;DHT22;54699;51.796;10.956;2022-12-13T02:51:35;14.50;44.00
67899;DHT22;54699;51.796;10.956;2022-12-13T02:54:03;14.50;44.00
67899;DHT22;54699;51.796;10.956;2022-12-13T02:56:30;14.50;44.00
67899;DHT22;54699;51.796;10.956;2022-12-13T02:58:57;14.40;44.00
67899;DHT22;54699;51.796;10.956;2022-12-13T03:01:30;14.40;44.00
67899;DHT22;54699;51.796;10.956;2022-12-13T03:04:10;14.50;44.10
67899;DHT22;54699;51.796;10.956;2022-12-13T03:06:48;14.50;44.00
67899;DHT22;54699;51.796;10.956;2022-12-13T03:09:31;14.40;44.00
67899;DHT22;54699;51.796;10.956;2022-12-13T03:12:07;14.50;44.00
67899;DHT22;54699;51.796;10.956;2022-12-13T03:15:03;14.40;44.00
67899;DHT22;54699;51.796;10.956;2022-12-13T03:17:36;14.40;44.00
67899;DHT22;54699;51.796;10.956;2022-12-13T03:20:10;14.40;44.00
67899;DHT22;54699;51.796;10.956;2022-12-13T03:22:42;14.40;44.00
67899;DHT22;54699;51.796;10.956;2022-12-13T03:25:09;14.40;44.00
67899;DHT22;54699;51.796;10.956;2022-12-13T03:27:36;14.40;44.00
67899;DHT22;54699;51.796;10.956;2022-12-13T03:30:03;14.40;44.00
67899;DHT22;54699;51.796;10.956;2022-12-13T03:32:31;14.40;44.00
67899;DHT22;54699;51.796;10.956;2022-12-13T03:34:59;14.40;44.00
67899;DHT22;54699;51.796;10.956;2022-12-13T03:37:26;14.40;44.00
67899;DHT22;54699;51.796;10.956;2022-12-13T03:39:53;14.40;44.00
67899;DHT22;54699;51.796;10.956;2022-12-13T03:42:20;14.40;43.90
67899;DHT22;54699;51.796;10.956;2022-12-13T03:44:47;14.40;44.00
67899;DHT22;54699;51.796;10.956;2022-12-13T03:47:14;14.40;44.00
67899;DHT22;54699;51.796;10.956;2022-12-13T03:49:41;14.40;44.00
67899;DHT22;54699;51.796;10.956;2022-12-13T03:52:10;14.40;44.00
67899;DHT22;54699;51.796;10.956;2022-12-13T03:54:36;14.40;44.00
67899;DHT22;54699;51.796;10.956;2022-12-13T03:57:03;14.40;44.00
67899;DHT22;54699;51.796;10.956;2022-12-13T03:59:30;14.40;44.00
67899;DHT22;54699;51.796;10.956;2022-12-13T04:01:57;14.40;44.00
67899;DHT22;54699;51.796;10.956;2022-12-13T04:04:23;14.40;43.90
67899;DHT22;54699;51.796;10.956;2022-12-13T04:06:50;14.40;43.90
67899;DHT22;54699;51.796;10.956;2022-12-13T04:09:18;14.40;43.90
67899;DHT22;54699;51.796;10.956;2022-12-13T04:11:45;14.40;43.80
67899;DHT22;54699;51.796;10.956;2022-12-13T04:14:30;14.40;43.90
67899;DHT22;54699;51.796;10.956;2022-12-13T04:16:56;14.40;43.90
67899;DHT22;54699;51.796;10.956;2022-12-13T04:19:23;14.40;43.80
67899;DHT22;54699;51.796;10.956;2022-12-13T04:21:53;14.40;43.90
67899;DHT22;54699;51.796;10.956;2022-12-13T04:24:21;14.40;43.80
67899;DHT22;54699;51.796;10.956;2022-12-13T04:26:48;14.30;43.90
67899;DHT22;54699;51.796;10.956;2022-12-13T04:29:16;14.30;43.80
67899;DHT22;54699;51.796;10.956;2022-12-13T04:31:43;14.30;43.80
67899;DHT22;54699;51.796;10.956;2022-12-13T04:34:09;14.30;43.80
67899;DHT22;54699;51.796;10.956;2022-12-13T04:36:36;14.40;43.90
67899;DHT22;54699;51.796;10.956;2022-12-13T04:39:03;14.30;43.80
67899;DHT22;54699;51.796;10.956;2022-12-13T04:41:35;14.30;43.70
67899;DHT22;54699;51.796;10.956;2022-12-13T04:44:03;14.30;43.80
67899;DHT22;54699;51.796;10.956;2022-12-13T04:46:31;14.30;43.70
67899;DHT22;54699;51.796;10.956;2022-12-13T04:48:58;14.30;43.70
67899;DHT22;54699;51.796;10.956;2022-12-13T04:51:25;14.30;43.70
67899;DHT22;54699;51.796;10.956;2022-12-13T04:53:52;14.30;43.70
67899;DHT22;54699;51.796;10.956;2022-12-13T04:56:19;14.30;43.70
67899;DHT22;54699;51.796;10.956;2022-12-13T04:58:47;14.30;43.60
67899;DHT22;54699;51.796;10.956;2022-12-13T05:01:14;14.30;43.70
67899;DHT22;54699;51.796;10.956;2022-12-13T05:03:41;14.40;43.60
67899;DHT22;54699;51.796;10.956;2022-12-13T05:06:09;14.40;43.60
67899;DHT22;54699;51.796;10.956;2022-12-13T05:08:37;14.40;43.50
67899;DHT22;54699;51.796;10.956;2022-12-13T05:11:06;14.40;43.30
67899;DHT22;54699;51.796;10.956;2022-12-13T05:13:34;14.50;43.30
67899;DHT22;54699;51.796;10.956;2022-12-13T05:16:03;14.50;43.20
67899;DHT22;54699;51.796;10.956;2022-12-13T05:18:31;14.50;43.20
67899;DHT22;54699;51.796;10.956;2022-12-13T05:21:00;14.50;43.10
67899;DHT22;54699;51.796;10.956;2022-12-13T05:23:27;14.50;43.00
67899;DHT22;54699;51.796;10.956;2022-12-13T05:25:54;14.60;43.00
67899;DHT22;54699;51.796;10.956;2022-12-13T05:28:21;14.60;42.90
67899;DHT22;54699;51.796;10.956;2022-12-13T05:30:52;14.60;42.90
67899;DHT22;54699;51.796;10.956;2022-12-13T05:33:21;14.60;42.80
67899;DHT22;54699;51.796;10.956;2022-12-13T05:35:49;14.60;42.80
67899;DHT22;54699;51.796;10.956;2022-12-13T05:38:16;14.60;42.60
67899;DHT22;54699;51.796;10.956;2022-12-13T05:40:43;14.60;41.90
67899;DHT22;54699;51.796;10.956;2022-12-13T05:43:10;14.60;42.20
67899;DHT22;54699;51.796;10.956;2022-12-13T05:45:37;14.60;40.70
67899;DHT22;54699;51.796;10.956;2022-12-13T05:48:04;14.70;42.00
67899;DHT22;54699;51.796;10.956;2022-12-13T05:50:33;14.70;42.00
67899;DHT22;54699;51.796;10.956;2022-12-13T05:53:00;14.60;40.80
67899;DHT22;54699;51.796;10.956;2022-12-13T05:55:29;14.70;41.90
67899;DHT22;54699;51.796;10.956;2022-12-13T05:57:56;14.70;40.50
67899;DHT22;54699;51.796;10.956;2022-12-13T06:00:24;14.70;39.40
67899;DHT22;54699;51.796;10.956;2022-12-13T06:02:53;14.70;39.50
67899;DHT22;54699;51.796;10.956;2022-12-13T06:05:20;14.60;39.20
67899;DHT22;54699;51.796;10.956;2022-12-13T06:07:49;14.70;39.70
67899;DHT22;54699;51.796;10.956;2022-12-13T06:10:18;14.70;39.60
67899;DHT22;54699;51.796;10.956;2022-12-13T06:12:45;14.70;37.90
67899;DHT22;54699;51.796;10.956;2022-12-13T06:15:11;14.60;36.10
67899;DHT22;54699;51.796;10.956;2022-12-13T06:17:38;14.60;39.50
67899;DHT22;54699;51.796;10.956;2022-12-13T06:20:06;14.70;41.80
67899;DHT22;54699;51.796;10.956;2022-12-13T06:22:34;14.70;40.10
67899;DHT22;54699;51.796;10.956;2022-12-13T06:25:02;14.70;40.80
67899;DHT22;54699;51.796;10.956;2022-12-13T06:27:30;14.70;40.80
67899;DHT22;54699;51.796;10.956;2022-12-13T06:29:57;14.80;40.80
67899;DHT22;54699;51.796;10.956;2022-12-13T06:32:24;14.80;40.70
67899;DHT22;54699;51.796;10.956;2022-12-13T06:34:52;14.80;40.80
67899;DHT22;54699;51.796;10.956;2022-12-13T06:37:19;14.80;40.40
67899;DHT22;54699;51.796;10.956;2022-12-13T06:39:46;14.50;39.40
67899;DHT22;54699;51.796;10.956;2022-12-13T06:42:15;14.60;39.60
67899;DHT22;54699;51.796;10.956;2022-12-13T06:44:43;14.70;39.30
67899;DHT22;54699;51.796;10.956;2022-12-13T06:47:11;14.80;38.70
67899;DHT22;54699;51.796;10.956;2022-12-13T06:49:39;14.80;37.30
67899;DHT22;54699;51.796;10.956;2022-12-13T06:52:09;14.90;38.70
67899;DHT22;54699;51.796;10.956;2022-12-13T06:54:37;14.90;38.40
67899;DHT22;54699;51.796;10.956;2022-12-13T06:57:05;14.90;38.20
67899;DHT22;54699;51.796;10.956;2022-12-13T06:59:34;14.70;37.50
67899;DHT22;54699;51.796;10.956;2022-12-13T07:02:01;14.60;37.90
67899;DHT22;54699;51.796;10.956;2022-12-13T07:04:28;14.80;37.50
67899;DHT22;54699;51.796;10.956;2022-12-13T07:06:55;14.70;37.00
67899;DHT22;54699;51.796;10.956;2022-12-13T07:09:22;14.90;35.70
67899;DHT22;54699;51.796;10.956;2022-12-13T07:11:51;14.90;35.60
67899;DHT22;54699;51.796;10.956;2022-12-13T07:14:18;15.00;38.50
67899;DHT22;54699;51.796;10.956;2022-12-13T07:16:47;15.10;39.10
67899;DHT22;54699;51.796;10.956;2022-12-13T07:19:14;15.10;38.80
67899;DHT22;54699;51.796;10.956;2022-12-13T07:21:41;15.20;38.70
67899;DHT22;54699;51.796;10.956;2022-12-13T07:24:08;15.20;38.60
67899;DHT22;54699;51.796;10.956;2022-12-13T07:26:35;15.20;38.70
67899;DHT22;54699;51.796;10.956;2022-12-13T07:29:02;15.20;38.60
67899;DHT22;54699;51.796;10.956;2022-12-13T07:31:29;15.20;38.70
67899;DHT22;54699;51.796;10.956;2022-12-13T07:33:57;15.20;38.70
67899;DHT22;54699;51.796;10.956;2022-12-13T07:36:24;15.20;38.90
67899;DHT22;54699;51.796;10.956;2022-12-13T07:38:51;15.20;38.70
67899;DHT22;54699;51.796;10.956;2022-12-13T07:41:20;15.20;38.40
67899;DHT22;54699;51.796;10.956;2022-12-13T07:43:47;15.20;38.50
67899;DHT22;54699;51.796;10.956;2022-12-13T07:46:14;15.20;38.80
67899;DHT22;54699;51.796;10.956;2022-12-13T07:48:44;15.20;38.80
67899;DHT22;54699;51.796;10.956;2022-12-13T07:51:13;15.10;38.30
67899;DHT22;54699;51.796;10.956;2022-12-13T07:53:40;15.20;39.00
67899;DHT22;54699;51.796;10.956;2022-12-13T07:56:07;15.20;39.00
67899;DHT22;54699;51.796;10.956;2022-12-13T07:58:36;15.20;37.80
67899;DHT22;54699;51.796;10.956;2022-12-13T08:01:05;15.10;38.80
67899;DHT22;54699;51.796;10.956;2022-12-13T08:03:34;15.10;38.80
67899;DHT22;54699;51.796;10.956;2022-12-13T08:06:02;15.10;38.70
67899;DHT22;54699;51.796;10.956;2022-12-13T08:08:33;15.10;38.90
67899;DHT22;54699;51.796;10.956;2022-12-13T08:11:02;15.10;38.70
67899;DHT22;54699;51.796;10.956;2022-12-13T08:13:31;15.10;39.10
67899;DHT22;54699;51.796;10.956;2022-12-13T08:15:59;15.10;39.10
67899;DHT22;54699;51.796;10.956;2022-12-13T08:18:27;15.10;39.20
67899;DHT22;54699;51.796;10.956;2022-12-13T08:20:56;15.10;39.30
67899;DHT22;54699;51.796;10.956;2022-12-13T08:23:24;15.10;39.40
67899;DHT22;54699;51.796;10.956;2022-12-13T08:25:53;15.10;39.20
67899;DHT22;54699;51.796;10.956;2022-12-13T08:28:20;15.10;39.30
67899;DHT22;54699;51.796;10.956;2022-12-13T08:30:48;15.10;39.30
67899;DHT22;54699;51.796;10.956;2022-12-13T08:33:15;15.00;38.40
67899;DHT22;54699;51.796;10.956;2022-12-13T08:35:42;15.00;38.60
67899;DHT22;54699;51.796;10.956;2022-12-13T08:38:10;15.00;39.40
67899;DHT22;54699;51.796;10.956;2022-12-13T08:40:38;15.00;38.80
67899;DHT22;54699;51.796;10.956;2022-12-13T08:43:09;15.10;38.90
67899;DHT22;54699;51.796;10.956;2022-12-13T08:45:36;15.20;39.30
67899;DHT22;54699;51.796;10.956;2022-12-13T08:48:04;15.20;39.50
67899;DHT22;54699;51.796;10.956;2022-12-13T08:50:31;15.30;38.90
67899;DHT22;54699;51.796;10.956;2022-12-13T08:52:59;15.30;39.00
67899;DHT22;54699;51.796;10.956;2022-12-13T08:55:26;15.40;39.40
67899;DHT22;54699;51.796;10.956;2022-12-13T08:57:53;15.50;39.30
67899;DHT22;54699;51.796;10.956;2022-12-13T09:00:32;15.60;38.00
67899;DHT22;54699;51.796;10.956;2022-12-13T09:03:00;15.50;38.00
67899;DHT22;54699;51.796;10.956;2022-12-13T09:05:28;15.40;37.50
67899;DHT22;54699;51.796;10.956;2022-12-13T09:07:56;15.30;36.90
67899;DHT22;54699;51.796;10.956;2022-12-13T09:10:27;15.40;37.00
67899;DHT22;54699;51.796;10.956;2022-12-13T09:12:54;15.50;37.30
67899;DHT22;54699;51.796;10.956;2022-12-13T09:15:24;15.50;36.60
67899;DHT22;54699;51.796;10.956;2022-12-13T09:17:53;15.60;39.00
67899;DHT22;54699;51.796;10.956;2022-12-13T09:20:20;15.70;39.80
67899;DHT22;54699;51.796;10.956;2022-12-13T09:22:47;15.70;39.80
67899;DHT22;54699;51.796;10.956;2022-12-13T09:25:14;15.60;39.10
67899;DHT22;54699;51.796;10.956;2022-12-13T09:27:41;15.50;38.80
67899;DHT22;54699;51.796;10.956;2022-12-13T09:30:09;15.60;39.00
67899;DHT22;54699;51.796;10.956;2022-12-13T09:32:38;15.70;39.60
67899;DHT22;54699;51.796;10.956;2022-12-13T09:35:09;15.70;39.20
67899;DHT22;54699;51.796;10.956;2022-12-13T09:37:36;15.50;38.70
67899;DHT22;54699;51.796;10.956;2022-12-13T09:40:04;15.50;38.30
67899;DHT22;54699;51.796;10.956;2022-12-13T09:42:31;15.50;38.10
67899;DHT22;54699;51.796;10.956;2022-12-13T09:45:02;15.50;39.00
67899;DHT22;54699;51.796;10.956;2022-12-13T09:47:32;15.40;39.10
67899;DHT22;54699;51.796;10.956;2022-12-13T09:50:05;15.50;39.00
67899;DHT22;54699;51.796;10.956;2022-12-13T09:52:39;15.70;38.90
67899;DHT22;54699;51.796;10.956;2022-12-13T09:55:19;15.70;38.70
67899;DHT22;54699;51.796;10.956;2022-12-13T09:57:48;15.70;38.90
67899;DHT22;54699;51.796;10.956;2022-12-13T10:00:19;15.70;39.30
67899;DHT22;54699;51.796;10.956;2022-12-13T10:02:48;15.70;39.00
67899;DHT22;54699;51.796;10.956;2022-12-13T10:05:20;15.80;39.10
67899;DHT22;54699;51.796;10.956;2022-12-13T10:07:53;15.80;39.40
67899;DHT22;54699;51.796;10.956;2022-12-13T10:10:23;15.80;39.30
67899;DHT22;54699;51.796;10.956;2022-12-13T10:12:51;15.80;39.50
67899;DHT22;54699;51.796;10.956;2022-12-13T10:15:23;15.80;39.20
67899;DHT22;54699;51.796;10.956;2022-12-13T10:17:51;15.80;38.90
67899;DHT22;54699;51.796;10.956;2022-12-13T10:20:20;15.70;39.20
67899;DHT22;54699;51.796;10.956;2022-12-13T10:22:50;15.80;39.70
67899;DHT22;54699;51.796;10.956;2022-12-13T10:25:17;15.90;39.30
67899;DHT22;54699;51.796;10.956;2022-12-13T10:28:10;16.00;39.60
67899;DHT22;54699;51.796;10.956;2022-12-13T10:30:40;16.10;39.50
67899;DHT22;54699;51.796;10.956;2022-12-13T10:33:17;16.00;39.50
67899;DHT22;54699;51.796;10.956;2022-12-13T10:36:13;16.10;39.40
67899;DHT22;54699;51.796;10.956;2022-12-13T10:38:55;16.10;39.10
67899;DHT22;54699;51.796;10.956;2022-12-13T10:41:32;16.30;38.50
67899;DHT22;54699;51.796;10.956;2022-12-13T10:44:18;16.40;38.50
67899;DHT22;54699;51.796;10.956;2022-12-13T10:46:58;16.40;38.50
67899;DHT22;54699;51.796;10.956;2022-12-13T10:49:49;16.50;39.00
67899;DHT22;54699;51.796;10.956;2022-12-13T10:52:29;16.70;37.30
67899;DHT22;54699;51.796;10.956;2022-12-13T10:55:01;16.90;38.60
67899;DHT22;54699;51.796;10.956;2022-12-13T10:57:31;17.00;38.70
67899;DHT22;54699;51.796;10.956;2022-12-13T10:59:59;17.10;38.50
67899;DHT22;54699;51.796;10.956;2022-12-13T11:02:30;17.20;37.70
67899;DHT22;54699;51.796;10.956;2022-12-13T11:05:16;17.30;38.50
67899;DHT22;54699;51.796;10.956;2022-12-13T11:07:50;17.30;37.40
67899;DHT22;54699;51.796;10.956;2022-12-13T11:10:23;17.30;36.90
67899;DHT22;54699;51.796;10.956;2022-12-13T11:12:52;17.30;38.80
67899;DHT22;54699;51.796;10.956;2022-12-13T11:15:25;17.10;37.50
67899;DHT22;54699;51.796;10.956;2022-12-13T11:17:54;17.20;37.30
67899;DHT22;54699;51.796;10.956;2022-12-13T11:20:28;17.10;38.00
67899;DHT22;54699;51.796;10.956;2022-12-13T11:23:01;17.20;37.80
67899;DHT22;54699;51.796;10.956;2022-12-13T11:25:34;17.30;37.70
67899;DHT22;54699;51.796;10.956;2022-12-13T11:28:09;17.20;37.80
67899;DHT22;54699;51.796;10.956;2022-12-13T11:30:47;17.20;37.10
67899;DHT22;54699;51.796;10.956;2022-12-13T11:33:26;17.20;37.30
67899;DHT22;54699;51.796;10.956;2022-12-13T11:36:05;17.20;37.60
67899;DHT22;54699;51.796;10.956;2022-12-13T11:38:42;17.20;37.60
67899;DHT22;54699;51.796;10.956;2022-12-13T11:41:23;17.30;37.50
67899;DHT22;54699;51.796;10.956;2022-12-13T11:43:55;17.20;37.60
67899;DHT22;54699;51.796;10.956;2022-12-13T11:46:28;17.20;38.60
67899;DHT22;54699;51.796;10.956;2022-12-13T11:49:03;17.30;38.00
67899;DHT22;54699;51.796;10.956;2022-12-13T11:51:37;17.30;37.90
67899;DHT22;54699;51.796;10.956;2022-12-13T11:54:12;17.30;35.50
67899;DHT22;54699;51.796;10.956;2022-12-13T11:56:43;17.40;38.60
67899;DHT22;54699;51.796;10.956;2022-12-13T11:59:23;17.40;37.70
67899;DHT22;54699;51.796;10.956;2022-12-13T12:02:00;17.50;38.20
67899;DHT22;54699;51.796;10.956;2022-12-13T12:04:33;17.60;38.00
67899;DHT22;54699;51.796;10.956;2022-12-13T12:07:04;17.60;37.20
67899;DHT22;54699;51.796;10.956;2022-12-13T12:09:38;17.60;37.80
67899;DHT22;54699;51.796;10.956;2022-12-13T12:12:10;17.60;37.60
67899;DHT22;54699;51.796;10.956;2022-12-13T12:14:44;17.60;37.90
67899;DHT22;54699;51.796;10.956;2022-12-13T12:17:18;17.70;38.00
67899;DHT22;54699;51.796;10.956;2022-12-13T12:19:51;17.70;36.10
67899;DHT22;54699;51.796;10.956;2022-12-13T12:22:23;17.80;36.70
67899;DHT22;54699;51.796;10.956;2022-12-13T12:25:12;17.80;37.00
67899;DHT22;54699;51.796;10.956;2022-12-13T12:27:50;17.80;36.40
67899;DHT22;54699;51.796;10.956;2022-12-13T12:30:25;17.90;36.20
67899;DHT22;54699;51.796;10.956;2022-12-13T12:33:07;17.90;36.70
67899;DHT22;54699;51.796;10.956;2022-12-13T12:35:49;18.00;35.70
67899;DHT22;54699;51.796;10.956;2022-12-13T12:38:32;18.00;36.70
67899;DHT22;54699;51.796;10.956;2022-12-13T12:41:31;18.10;36.60
67899;DHT22;54699;51.796;10.956;2022-12-13T12:44:10;18.20;35.90
67899;DHT22;54699;51.796;10.956;2022-12-13T12:46:49;18.00;36.10
67899;DHT22;54699;51.796;10.956;2022-12-13T12:49:31;18.10;36.40
67899;DHT22;54699;51.796;10.956;2022-12-13T12:52:25;18.20;35.80
67899;DHT22;54699;51.796;10.956;2022-12-13T12:55:02;18.20;36.40
67899;DHT22;54699;51.796;10.956;2022-12-13T12:57:43;18.20;35.80
67899;DHT22;54699;51.796;10.956;2022-12-13T13:00:21;18.30;33.90
67899;DHT22;54699;51.796;10.956;2022-12-13T13:02:51;18.30;34.90
67899;DHT22;54699;51.796;10.956;2022-12-13T13:05:24;18.30;34.40
67899;DHT22;54699;51.796;10.956;2022-12-13T13:07:57;18.40;34.50
67899;DHT22;54699;51.796;10.956;2022-12-13T13:10:30;18.40;34.50
67899;DHT22;54699;51.796;10.956;2022-12-13T13:13:01;18.40;34.30
67899;DHT22;54699;51.796;10.956;2022-12-13T13:15:51;18.40;34.10
67899;DHT22;54699;51.796;10.956;2022-12-13T13:21:24;18.50;34.00
67899;DHT22;54699;51.796;10.956;2022-12-13T13:24:15;18.50;34.30
67899;DHT22;54699;51.796;10.956;2022-12-13T13:26:47;18.50;34.60
67899;DHT22;54699;51.796;10.956;2022-12-13T13:32:23;18.50;34.60
67899;DHT22;54699;51.796;10.956;2022-12-13T13:34:52;18.40;35.20
67899;DHT22;54699;51.796;10.956;2022-12-13T13:37:26;18.40;35.40
67899;DHT22;54699;51.796;10.956;2022-12-13T13:39:55;18.40;34.40
67899;DHT22;54699;51.796;10.956;2022-12-13T13:42:25;18.40;34.20
67899;DHT22;54699;51.796;10.956;2022-12-13T13:47:53;18.30;33.70
67899;DHT22;54699;51.796;10.956;2022-12-13T13:54:05;18.30;33.90
67899;DHT22;54699;51.796;10.956;2022-12-13T13:57:01;18.20;34.00
67899;DHT22;54699;51.796;10.956;2022-12-13T13:59:54;18.30;34.50
67899;DHT22;54699;51.796;10.956;2022-12-13T14:05:58;18.20;34.40
67899;DHT22;54699;51.796;10.956;2022-12-13T14:15:22;17.90;34.60
67899;DHT22;54699;51.796;10.956;2022-12-13T14:18:23;17.90;34.50
67899;DHT22;54699;51.796;10.956;2022-12-13T14:21:34;17.80;34.40
67899;DHT22;54699;51.796;10.956;2022-12-13T14:24:11;17.80;34.80
67899;DHT22;54699;51.796;10.956;2022-12-13T14:26:52;17.70;34.70
67899;DHT22;54699;51.796;10.956;2022-12-13T14:29:28;17.70;34.90
67899;DHT22;54699;51.796;10.956;2022-12-13T14:31:58;17.60;35.00
67899;DHT22;54699;51.796;10.956;2022-12-13T14:34:26;17.50;35.40
67899;DHT22;54699;51.796;10.956;2022-12-13T14:36:58;17.50;35.30
67899;DHT22;54699;51.796;10.956;2022-12-13T14:39:27;17.40;35.70
67899;DHT22;54699;51.796;10.956;2022-12-13T14:41:55;17.40;35.10
67899;DHT22;54699;51.796;10.956;2022-12-13T14:44:24;17.40;35.40
67899;DHT22;54699;51.796;10.956;2022-12-13T14:46:53;17.40;35.50
67899;DHT22;54699;51.796;10.956;2022-12-13T14:49:22;17.40;35.50
67899;DHT22;54699;51.796;10.956;2022-12-13T14:51:52;17.30;35.90
67899;DHT22;54699;51.796;10.956;2022-12-13T14:54:28;17.30;35.90
67899;DHT22;54699;51.796;10.956;2022-12-13T14:56:59;17.20;35.80
67899;DHT22;54699;51.796;10.956;2022-12-13T14:59:27;17.20;36.00
67899;DHT22;54699;51.796;10.956;2022-12-13T15:01:55;17.20;35.80
67899;DHT22;54699;51.796;10.956;2022-12-13T15:04:26;17.20;36.10
67899;DHT22;54699;51.796;10.956;2022-12-13T15:06:56;17.20;36.30
67899;DHT22;54699;51.796;10.956;2022-12-13T15:09:27;17.20;36.90
67899;DHT22;54699;51.796;10.956;2022-12-13T15:11:56;17.20;37.10
67899;DHT22;54699;51.796;10.956;2022-12-13T15:14:24;17.20;37.30
67899;DHT22;54699;51.796;10.956;2022-12-13T15:16:53;17.20;36.80
67899;DHT22;54699;51.796;10.956;2022-12-13T15:19:21;17.10;37.10
67899;DHT22;54699;51.796;10.956;2022-12-13T15:21:53;17.10;37.40
67899;DHT22;54699;51.796;10.956;2022-12-13T15:24:22;17.10;37.30
67899;DHT22;54699;51.796;10.956;2022-12-13T15:26:53;17.10;38.80
67899;DHT22;54699;51.796;10.956;2022-12-13T15:29:23;17.10;39.00
67899;DHT22;54699;51.796;10.956;2022-12-13T15:31:54;17.00;39.20
67899;DHT22;54699;51.796;10.956;2022-12-13T15:34:22;17.10;39.40
67899;DHT22;54699;51.796;10.956;2022-12-13T15:37:02;17.10;38.90
67899;DHT22;54699;51.796;10.956;2022-12-13T15:39:34;17.00;38.90
67899;DHT22;54699;51.796;10.956;2022-12-13T15:42:04;17.00;38.90
67899;DHT22;54699;51.796;10.956;2022-12-13T15:44:43;16.90;38.40
67899;DHT22;54699;51.796;10.956;2022-12-13T15:47:13;16.90;39.10
67899;DHT22;54699;51.796;10.956;2022-12-13T15:49:43;16.90;39.00
67899;DHT22;54699;51.796;10.956;2022-12-13T15:52:26;16.90;38.90
67899;DHT22;54699;51.796;10.956;2022-12-13T15:54:56;16.90;39.10
67899;DHT22;54699;51.796;10.956;2022-12-13T15:57:26;16.90;39.20
67899;DHT22;54699;51.796;10.956;2022-12-13T16:00:02;16.90;39.60
67899;DHT22;54699;51.796;10.956;2022-12-13T16:02:35;16.90;40.00
67899;DHT22;54699;51.796;10.956;2022-12-13T16:05:17;16.80;40.20
67899;DHT22;54699;51.796;10.956;2022-12-13T16:07:50;16.80;39.80